sensor_id;sensor_type;location;lat;lon;timestamp;P1;durP1;ratioP1;P2;durP2;ratioP2
17574;SDS011;8906;43.590;1.418;2023-08-01T00:00:57;3.20;;;2.60;;
17574;SDS011;8906;43.590;1.418;2023-08-01T00:03:24;6.00;;;2.40;;
17574;SDS011;8906;43.590;1.418;2023-08-01T00:05:51;4.38;;;3.47;;
17574;SDS011;8906;43.590;1.418;2023-08-01T00:08:21;3.03;;;2.53;;
17574;SDS011;8906;43.590;1.418;2023-08-01T00:10:48;3.53;;;3.22;;
17574;SDS011;8906;43.590;1.418;2023-08-01T00:13:15;2.97;;;2.67;;
17574;SDS011;8906;43.590;1.418;2023-08-01T00:15:42;4.15;;;2.70;;
17574;SDS011;8906;43.590;1.418;2023-08-01T00:18:09;4.53;;;3.20;;
17574;SDS011;8906;43.590;1.418;2023-08-01T00:20:35;3.05;;;2.70;;
17574;SDS011;8906;43.590;1.418;2023-08-01T00:23:04;3.63;;;2.55;;
17574;SDS011;8906;43.590;1.418;2023-08-01T00:25:32;3.63;;;3.33;;
17574;SDS011;8906;43.590;1.418;2023-08-01T00:27:59;3.42;;;2.72;;
17574;SDS011;8906;43.590;1.418;2023-08-01T00:30:26;2.67;;;2.47;;
17574;SDS011;8906;43.590;1.418;2023-08-01T00:32:53;4.18;;;2.83;;
17574;SDS011;8906;43.590;1.418;2023-08-01T00:35:20;4.90;;;2.70;;
17574;SDS011;8906;43.590;1.418;2023-08-01T00:37:47;4.05;;;3.47;;
17574;SDS011;8906;43.590;1.418;2023-08-01T00:40:14;4.43;;;3.67;;
17574;SDS011;8906;43.590;1.418;2023-08-01T00:42:43;4.35;;;3.45;;
17574;SDS011;8906;43.590;1.418;2023-08-01T00:45:10;4.57;;;3.88;;
17574;SDS011;8906;43.590;1.418;2023-08-01T00:47:38;5.00;;;3.85;;
17574;SDS011;8906;43.590;1.418;2023-08-01T00:50:05;7.20;;;4.60;;
17574;SDS011;8906;43.590;1.418;2023-08-01T00:52:33;5.10;;;4.45;;
17574;SDS011;8906;43.590;1.418;2023-08-01T00:55:00;6.03;;;5.43;;
17574;SDS011;8906;43.590;1.418;2023-08-01T00:57:27;9.73;;;8.73;;
17574;SDS011;8906;43.590;1.418;2023-08-01T01:03:00;10.95;;;7.75;;
17574;SDS011;8906;43.590;1.418;2023-08-01T01:05:27;9.20;;;7.15;;
17574;SDS011;8906;43.590;1.418;2023-08-01T01:08:01;7.68;;;6.97;;
17574;SDS011;8906;43.590;1.418;2023-08-01T01:10:29;6.80;;;6.10;;
17574;SDS011;8906;43.590;1.418;2023-08-01T01:12:56;8.43;;;7.07;;
17574;SDS011;8906;43.590;1.418;2023-08-01T01:15:23;7.20;;;6.07;;
17574;SDS011;8906;43.590;1.418;2023-08-01T01:17:51;7.55;;;5.50;;
17574;SDS011;8906;43.590;1.418;2023-08-01T01:20:20;6.25;;;4.57;;
17574;SDS011;8906;43.590;1.418;2023-08-01T01:22:50;4.25;;;3.70;;
17574;SDS011;8906;43.590;1.418;2023-08-01T01:25:18;3.42;;;3.13;;
17574;SDS011;8906;43.590;1.418;2023-08-01T01:27:46;5.32;;;3.92;;
17574;SDS011;8906;43.590;1.418;2023-08-01T01:30:15;5.22;;;3.75;;
17574;SDS011;8906;43.590;1.418;2023-08-01T01:32:43;7.80;;;3.70;;
17574;SDS011;8906;43.590;1.418;2023-08-01T01:35:11;4.13;;;3.65;;
17574;SDS011;8906;43.590;1.418;2023-08-01T01:37:37;6.00;;;3.90;;
17574;SDS011;8906;43.590;1.418;2023-08-01T01:40:07;5.15;;;3.70;;
17574;SDS011;8906;43.590;1.418;2023-08-01T01:42:34;5.95;;;3.45;;
17574;SDS011;8906;43.590;1.418;2023-08-01T01:45:01;4.65;;;3.58;;
17574;SDS011;8906;43.590;1.418;2023-08-01T01:47:28;4.28;;;3.88;;
17574;SDS011;8906;43.590;1.418;2023-08-01T01:49:55;4.78;;;3.05;;
17574;SDS011;8906;43.590;1.418;2023-08-01T01:52:22;5.00;;;3.80;;
17574;SDS011;8906;43.590;1.418;2023-08-01T01:54:49;6.28;;;4.68;;
17574;SDS011;8906;43.590;1.418;2023-08-01T01:57:17;4.45;;;4.05;;
17574;SDS011;8906;43.590;1.418;2023-08-01T01:59:44;4.80;;;3.92;;
17574;SDS011;8906;43.590;1.418;2023-08-01T02:02:11;4.35;;;3.95;;
17574;SDS011;8906;43.590;1.418;2023-08-01T02:04:37;5.97;;;4.32;;
17574;SDS011;8906;43.590;1.418;2023-08-01T02:07:05;5.22;;;4.65;;
17574;SDS011;8906;43.590;1.418;2023-08-01T02:09:32;4.38;;;3.95;;
17574;SDS011;8906;43.590;1.418;2023-08-01T02:11:59;4.32;;;3.92;;
17574;SDS011;8906;43.590;1.418;2023-08-01T02:14:27;7.70;;;4.40;;
17574;SDS011;8906;43.590;1.418;2023-08-01T02:16:54;5.40;;;3.75;;
17574;SDS011;8906;43.590;1.418;2023-08-01T02:19:21;5.47;;;3.60;;
17574;SDS011;8906;43.590;1.418;2023-08-01T02:21:47;4.85;;;4.10;;
17574;SDS011;8906;43.590;1.418;2023-08-01T02:24:14;4.00;;;3.70;;
17574;SDS011;8906;43.590;1.418;2023-08-01T02:26:41;3.92;;;3.53;;
17574;SDS011;8906;43.590;1.418;2023-08-01T02:29:08;4.65;;;4.25;;
17574;SDS011;8906;43.590;1.418;2023-08-01T02:31:36;5.45;;;3.60;;
17574;SDS011;8906;43.590;1.418;2023-08-01T02:34:03;4.50;;;3.88;;
17574;SDS011;8906;43.590;1.418;2023-08-01T02:36:30;4.55;;;4.15;;
17574;SDS011;8906;43.590;1.418;2023-08-01T02:38:57;4.97;;;4.30;;
17574;SDS011;8906;43.590;1.418;2023-08-01T02:41:24;3.75;;;3.45;;
17574;SDS011;8906;43.590;1.418;2023-08-01T02:43:51;4.97;;;4.50;;
17574;SDS011;8906;43.590;1.418;2023-08-01T02:46:18;5.00;;;4.03;;
17574;SDS011;8906;43.590;1.418;2023-08-01T02:48:46;5.38;;;3.80;;
17574;SDS011;8906;43.590;1.418;2023-08-01T02:51:13;4.97;;;4.28;;
17574;SDS011;8906;43.590;1.418;2023-08-01T02:53:40;5.35;;;4.35;;
17574;SDS011;8906;43.590;1.418;2023-08-01T02:56:07;8.05;;;4.47;;
17574;SDS011;8906;43.590;1.418;2023-08-01T02:58:35;5.45;;;3.78;;
17574;SDS011;8906;43.590;1.418;2023-08-01T03:01:05;5.68;;;4.65;;
17574;SDS011;8906;43.590;1.418;2023-08-01T03:03:34;4.90;;;3.95;;
17574;SDS011;8906;43.590;1.418;2023-08-01T03:06:03;8.35;;;5.55;;
17574;SDS011;8906;43.590;1.418;2023-08-01T03:08:30;5.43;;;3.92;;
17574;SDS011;8906;43.590;1.418;2023-08-01T03:10:57;4.30;;;3.78;;
17574;SDS011;8906;43.590;1.418;2023-08-01T03:13:24;7.22;;;5.10;;
17574;SDS011;8906;43.590;1.418;2023-08-01T03:15:51;4.60;;;4.20;;
17574;SDS011;8906;43.590;1.418;2023-08-01T03:18:18;8.27;;;4.47;;
17574;SDS011;8906;43.590;1.418;2023-08-01T03:20:45;5.18;;;4.30;;
17574;SDS011;8906;43.590;1.418;2023-08-01T03:23:13;5.25;;;4.38;;
17574;SDS011;8906;43.590;1.418;2023-08-01T03:25:40;4.93;;;4.18;;
17574;SDS011;8906;43.590;1.418;2023-08-01T03:28:07;5.40;;;3.90;;
17574;SDS011;8906;43.590;1.418;2023-08-01T03:30:34;6.57;;;4.60;;
17574;SDS011;8906;43.590;1.418;2023-08-01T03:33:01;7.22;;;4.43;;
17574;SDS011;8906;43.590;1.418;2023-08-01T03:35:29;5.28;;;4.63;;
17574;SDS011;8906;43.590;1.418;2023-08-01T03:37:56;5.05;;;4.53;;
17574;SDS011;8906;43.590;1.418;2023-08-01T03:40:24;4.75;;;4.35;;
17574;SDS011;8906;43.590;1.418;2023-08-01T03:42:51;6.00;;;4.70;;
17574;SDS011;8906;43.590;1.418;2023-08-01T03:45:18;4.93;;;4.45;;
17574;SDS011;8906;43.590;1.418;2023-08-01T03:47:45;5.22;;;4.53;;
17574;SDS011;8906;43.590;1.418;2023-08-01T03:50:12;4.85;;;4.32;;
17574;SDS011;8906;43.590;1.418;2023-08-01T03:52:39;5.45;;;4.93;;
17574;SDS011;8906;43.590;1.418;2023-08-01T03:55:07;5.85;;;4.22;;
17574;SDS011;8906;43.590;1.418;2023-08-01T03:57:35;4.95;;;4.07;;
17574;SDS011;8906;43.590;1.418;2023-08-01T04:00:04;4.78;;;4.38;;
17574;SDS011;8906;43.590;1.418;2023-08-01T04:02:38;6.57;;;5.03;;
17574;SDS011;8906;43.590;1.418;2023-08-01T04:05:05;5.18;;;4.68;;
17574;SDS011;8906;43.590;1.418;2023-08-01T04:07:34;4.18;;;3.78;;
17574;SDS011;8906;43.590;1.418;2023-08-01T04:10:01;4.70;;;4.20;;
17574;SDS011;8906;43.590;1.418;2023-08-01T04:12:28;7.70;;;4.13;;
17574;SDS011;8906;43.590;1.418;2023-08-01T04:14:56;5.50;;;4.18;;
17574;SDS011;8906;43.590;1.418;2023-08-01T04:17:23;4.50;;;4.15;;
17574;SDS011;8906;43.590;1.418;2023-08-01T04:19:50;4.78;;;4.35;;
17574;SDS011;8906;43.590;1.418;2023-08-01T04:22:17;6.53;;;4.18;;
17574;SDS011;8906;43.590;1.418;2023-08-01T04:24:44;4.35;;;3.92;;
17574;SDS011;8906;43.590;1.418;2023-08-01T04:27:10;5.72;;;4.47;;
17574;SDS011;8906;43.590;1.418;2023-08-01T04:29:37;9.38;;;4.47;;
17574;SDS011;8906;43.590;1.418;2023-08-01T04:32:06;4.88;;;4.28;;
17574;SDS011;8906;43.590;1.418;2023-08-01T04:34:34;6.22;;;4.53;;
17574;SDS011;8906;43.590;1.418;2023-08-01T04:37:00;4.75;;;4.35;;
17574;SDS011;8906;43.590;1.418;2023-08-01T04:39:27;5.38;;;4.68;;
17574;SDS011;8906;43.590;1.418;2023-08-01T04:41:54;4.50;;;4.10;;
17574;SDS011;8906;43.590;1.418;2023-08-01T04:44:21;7.13;;;5.00;;
17574;SDS011;8906;43.590;1.418;2023-08-01T04:46:48;6.90;;;4.53;;
17574;SDS011;8906;43.590;1.418;2023-08-01T04:49:16;6.72;;;3.90;;
17574;SDS011;8906;43.590;1.418;2023-08-01T04:51:44;5.55;;;4.47;;
17574;SDS011;8906;43.590;1.418;2023-08-01T04:54:11;3.88;;;3.33;;
17574;SDS011;8906;43.590;1.418;2023-08-01T04:56:38;6.65;;;4.15;;
17574;SDS011;8906;43.590;1.418;2023-08-01T04:59:04;6.10;;;4.55;;
17574;SDS011;8906;43.590;1.418;2023-08-01T05:01:31;5.25;;;3.75;;
17574;SDS011;8906;43.590;1.418;2023-08-01T05:03:58;6.22;;;4.13;;
17574;SDS011;8906;43.590;1.418;2023-08-01T05:06:27;4.68;;;4.15;;
17574;SDS011;8906;43.590;1.418;2023-08-01T05:08:54;6.25;;;4.63;;
17574;SDS011;8906;43.590;1.418;2023-08-01T05:11:20;4.43;;;3.75;;
17574;SDS011;8906;43.590;1.418;2023-08-01T05:13:48;6.88;;;4.72;;
17574;SDS011;8906;43.590;1.418;2023-08-01T05:16:15;5.80;;;4.72;;
17574;SDS011;8906;43.590;1.418;2023-08-01T05:18:42;3.47;;;3.17;;
17574;SDS011;8906;43.590;1.418;2023-08-01T05:21:08;6.43;;;4.20;;
17574;SDS011;8906;43.590;1.418;2023-08-01T05:23:37;4.78;;;4.10;;
17574;SDS011;8906;43.590;1.418;2023-08-01T05:26:03;7.72;;;4.60;;
17574;SDS011;8906;43.590;1.418;2023-08-01T05:28:30;5.35;;;4.63;;
17574;SDS011;8906;43.590;1.418;2023-08-01T05:30:57;5.20;;;4.70;;
17574;SDS011;8906;43.590;1.418;2023-08-01T05:33:24;5.80;;;5.13;;
17574;SDS011;8906;43.590;1.418;2023-08-01T05:35:51;4.80;;;4.38;;
17574;SDS011;8906;43.590;1.418;2023-08-01T05:38:18;5.07;;;4.55;;
17574;SDS011;8906;43.590;1.418;2023-08-01T05:40:46;6.55;;;4.95;;
17574;SDS011;8906;43.590;1.418;2023-08-01T05:43:13;5.28;;;4.57;;
17574;SDS011;8906;43.590;1.418;2023-08-01T05:45:40;9.20;;;5.70;;
17574;SDS011;8906;43.590;1.418;2023-08-01T05:48:07;7.65;;;5.03;;
17574;SDS011;8906;43.590;1.418;2023-08-01T05:50:34;5.80;;;4.55;;
17574;SDS011;8906;43.590;1.418;2023-08-01T05:53:01;8.07;;;5.70;;
17574;SDS011;8906;43.590;1.418;2023-08-01T05:55:28;5.80;;;4.70;;
17574;SDS011;8906;43.590;1.418;2023-08-01T05:57:56;5.03;;;4.63;;
17574;SDS011;8906;43.590;1.418;2023-08-01T06:00:23;9.10;;;5.18;;
17574;SDS011;8906;43.590;1.418;2023-08-01T06:02:50;7.65;;;5.88;;
17574;SDS011;8906;43.590;1.418;2023-08-01T06:05:17;6.30;;;4.32;;
17574;SDS011;8906;43.590;1.418;2023-08-01T06:07:44;6.60;;;4.68;;
17574;SDS011;8906;43.590;1.418;2023-08-01T06:10:11;4.80;;;4.30;;
17574;SDS011;8906;43.590;1.418;2023-08-01T06:12:37;8.13;;;5.05;;
17574;SDS011;8906;43.590;1.418;2023-08-01T06:15:06;6.10;;;4.50;;
17574;SDS011;8906;43.590;1.418;2023-08-01T06:17:33;5.63;;;4.85;;
17574;SDS011;8906;43.590;1.418;2023-08-01T06:20:00;7.03;;;4.85;;
17574;SDS011;8906;43.590;1.418;2023-08-01T06:22:29;5.28;;;4.18;;
17574;SDS011;8906;43.590;1.418;2023-08-01T06:24:56;4.85;;;4.13;;
17574;SDS011;8906;43.590;1.418;2023-08-01T06:27:23;6.75;;;4.20;;
17574;SDS011;8906;43.590;1.418;2023-08-01T06:29:50;7.00;;;4.65;;
17574;SDS011;8906;43.590;1.418;2023-08-01T06:32:19;4.15;;;3.40;;
17574;SDS011;8906;43.590;1.418;2023-08-01T06:34:45;6.80;;;4.30;;
17574;SDS011;8906;43.590;1.418;2023-08-01T06:37:12;5.82;;;4.55;;
17574;SDS011;8906;43.590;1.418;2023-08-01T06:39:39;5.43;;;4.80;;
17574;SDS011;8906;43.590;1.418;2023-08-01T06:42:06;7.03;;;4.60;;
17574;SDS011;8906;43.590;1.418;2023-08-01T06:44:33;10.82;;;5.00;;
17574;SDS011;8906;43.590;1.418;2023-08-01T06:47:00;6.18;;;4.70;;
17574;SDS011;8906;43.590;1.418;2023-08-01T06:49:28;6.47;;;4.70;;
17574;SDS011;8906;43.590;1.418;2023-08-01T06:51:55;8.25;;;4.88;;
17574;SDS011;8906;43.590;1.418;2023-08-01T06:54:22;4.72;;;3.92;;
17574;SDS011;8906;43.590;1.418;2023-08-01T06:56:49;7.00;;;4.45;;
17574;SDS011;8906;43.590;1.418;2023-08-01T06:59:16;5.03;;;4.03;;
17574;SDS011;8906;43.590;1.418;2023-08-01T07:01:43;4.25;;;3.42;;
17574;SDS011;8906;43.590;1.418;2023-08-01T07:04:10;4.90;;;3.90;;
17574;SDS011;8906;43.590;1.418;2023-08-01T07:06:39;3.63;;;3.25;;
17574;SDS011;8906;43.590;1.418;2023-08-01T07:09:06;6.20;;;3.92;;
17574;SDS011;8906;43.590;1.418;2023-08-01T07:11:33;9.05;;;4.70;;
17574;SDS011;8906;43.590;1.418;2023-08-01T07:14:00;5.03;;;4.18;;
17574;SDS011;8906;43.590;1.418;2023-08-01T07:16:27;5.10;;;3.80;;
17574;SDS011;8906;43.590;1.418;2023-08-01T07:18:54;4.60;;;3.40;;
17574;SDS011;8906;43.590;1.418;2023-08-01T07:21:21;6.47;;;3.92;;
17574;SDS011;8906;43.590;1.418;2023-08-01T07:23:50;5.32;;;3.75;;
17574;SDS011;8906;43.590;1.418;2023-08-01T07:26:17;4.20;;;3.80;;
17574;SDS011;8906;43.590;1.418;2023-08-01T07:28:43;4.82;;;3.83;;
17574;SDS011;8906;43.590;1.418;2023-08-01T07:31:10;7.28;;;4.32;;
17574;SDS011;8906;43.590;1.418;2023-08-01T07:33:37;3.75;;;3.42;;
17574;SDS011;8906;43.590;1.418;2023-08-01T07:36:04;5.28;;;3.63;;
17574;SDS011;8906;43.590;1.418;2023-08-01T07:38:31;4.53;;;3.63;;
17574;SDS011;8906;43.590;1.418;2023-08-01T07:41:03;4.93;;;3.08;;
17574;SDS011;8906;43.590;1.418;2023-08-01T07:43:30;4.95;;;3.90;;
17574;SDS011;8906;43.590;1.418;2023-08-01T07:45:57;4.28;;;3.08;;
17574;SDS011;8906;43.590;1.418;2023-08-01T07:48:25;7.43;;;3.58;;
17574;SDS011;8906;43.590;1.418;2023-08-01T07:50:52;5.20;;;3.50;;
17574;SDS011;8906;43.590;1.418;2023-08-01T07:53:18;5.63;;;4.32;;
17574;SDS011;8906;43.590;1.418;2023-08-01T07:55:45;5.70;;;3.47;;
17574;SDS011;8906;43.590;1.418;2023-08-01T07:58:14;3.72;;;3.17;;
17574;SDS011;8906;43.590;1.418;2023-08-01T08:00:41;4.90;;;3.90;;
17574;SDS011;8906;43.590;1.418;2023-08-01T08:03:08;3.80;;;3.17;;
17574;SDS011;8906;43.590;1.418;2023-08-01T08:05:35;3.50;;;2.85;;
17574;SDS011;8906;43.590;1.418;2023-08-01T08:08:03;4.38;;;3.90;;
17574;SDS011;8906;43.590;1.418;2023-08-01T08:10:31;3.83;;;3.40;;
17574;SDS011;8906;43.590;1.418;2023-08-01T08:12:58;6.25;;;3.53;;
17574;SDS011;8906;43.590;1.418;2023-08-01T08:15:26;4.85;;;4.32;;
17574;SDS011;8906;43.590;1.418;2023-08-01T08:17:56;5.57;;;3.83;;
17574;SDS011;8906;43.590;1.418;2023-08-01T08:20:22;5.80;;;3.20;;
17574;SDS011;8906;43.590;1.418;2023-08-01T08:22:49;6.70;;;3.78;;
17574;SDS011;8906;43.590;1.418;2023-08-01T08:25:16;4.10;;;3.00;;
17574;SDS011;8906;43.590;1.418;2023-08-01T08:27:43;4.50;;;3.10;;
17574;SDS011;8906;43.590;1.418;2023-08-01T08:30:10;3.15;;;2.83;;
17574;SDS011;8906;43.590;1.418;2023-08-01T08:32:39;4.75;;;3.05;;
17574;SDS011;8906;43.590;1.418;2023-08-01T08:35:06;3.90;;;2.53;;
17574;SDS011;8906;43.590;1.418;2023-08-01T08:37:33;6.32;;;2.97;;
17574;SDS011;8906;43.590;1.418;2023-08-01T08:40:01;2.88;;;2.67;;
17574;SDS011;8906;43.590;1.418;2023-08-01T08:42:28;6.15;;;3.33;;
17574;SDS011;8906;43.590;1.418;2023-08-01T08:44:55;3.58;;;3.28;;
17574;SDS011;8906;43.590;1.418;2023-08-01T08:47:25;5.70;;;2.83;;
17574;SDS011;8906;43.590;1.418;2023-08-01T08:49:55;3.67;;;2.72;;
17574;SDS011;8906;43.590;1.418;2023-08-01T08:52:23;4.25;;;2.95;;
17574;SDS011;8906;43.590;1.418;2023-08-01T08:54:50;3.13;;;2.35;;
17574;SDS011;8906;43.590;1.418;2023-08-01T08:57:18;6.32;;;2.40;;
17574;SDS011;8906;43.590;1.418;2023-08-01T08:59:46;3.20;;;2.10;;
17574;SDS011;8906;43.590;1.418;2023-08-01T09:02:14;3.88;;;2.30;;
17574;SDS011;8906;43.590;1.418;2023-08-01T09:04:42;7.20;;;2.72;;
17574;SDS011;8906;43.590;1.418;2023-08-01T09:07:10;3.80;;;2.53;;
17574;SDS011;8906;43.590;1.418;2023-08-01T09:09:39;2.60;;;2.40;;
17574;SDS011;8906;43.590;1.418;2023-08-01T09:12:07;3.53;;;1.98;;
17574;SDS011;8906;43.590;1.418;2023-08-01T09:14:35;3.28;;;2.58;;
17574;SDS011;8906;43.590;1.418;2023-08-01T09:17:05;2.60;;;2.40;;
17574;SDS011;8906;43.590;1.418;2023-08-01T09:19:33;3.47;;;2.45;;
17574;SDS011;8906;43.590;1.418;2023-08-01T09:22:01;4.38;;;2.80;;
17574;SDS011;8906;43.590;1.418;2023-08-01T09:24:29;2.38;;;2.17;;
17574;SDS011;8906;43.590;1.418;2023-08-01T09:27:01;3.20;;;2.10;;
17574;SDS011;8906;43.590;1.418;2023-08-01T09:29:30;3.22;;;2.70;;
17574;SDS011;8906;43.590;1.418;2023-08-01T09:31:57;2.45;;;2.25;;
17574;SDS011;8906;43.590;1.418;2023-08-01T09:34:25;2.55;;;2.17;;
17574;SDS011;8906;43.590;1.418;2023-08-01T09:36:57;3.05;;;2.08;;
17574;SDS011;8906;43.590;1.418;2023-08-01T09:39:25;2.25;;;2.00;;
17574;SDS011;8906;43.590;1.418;2023-08-01T09:41:57;2.45;;;1.92;;
17574;SDS011;8906;43.590;1.418;2023-08-01T09:44:25;2.40;;;2.03;;
17574;SDS011;8906;43.590;1.418;2023-08-01T09:46:56;5.05;;;2.20;;
17574;SDS011;8906;43.590;1.418;2023-08-01T09:49:24;2.72;;;2.53;;
17574;SDS011;8906;43.590;1.418;2023-08-01T09:51:51;3.80;;;1.88;;
17574;SDS011;8906;43.590;1.418;2023-08-01T09:54:18;2.95;;;2.13;;
17574;SDS011;8906;43.590;1.418;2023-08-01T09:56:52;2.03;;;1.60;;
17574;SDS011;8906;43.590;1.418;2023-08-01T09:59:23;3.28;;;1.70;;
17574;SDS011;8906;43.590;1.418;2023-08-01T10:01:51;1.73;;;1.30;;
17574;SDS011;8906;43.590;1.418;2023-08-01T10:04:20;3.00;;;1.92;;
17574;SDS011;8906;43.590;1.418;2023-08-01T10:06:51;4.00;;;1.90;;
17574;SDS011;8906;43.590;1.418;2023-08-01T10:09:21;2.00;;;1.60;;
17574;SDS011;8906;43.590;1.418;2023-08-01T10:11:48;2.22;;;2.03;;
17574;SDS011;8906;43.590;1.418;2023-08-01T10:14:16;2.58;;;1.83;;
17574;SDS011;8906;43.590;1.418;2023-08-01T10:16:45;1.65;;;1.50;;
17574;SDS011;8906;43.590;1.418;2023-08-01T10:19:12;1.80;;;1.67;;
17574;SDS011;8906;43.590;1.418;2023-08-01T10:21:40;1.63;;;1.52;;
17574;SDS011;8906;43.590;1.418;2023-08-01T10:24:08;2.80;;;2.17;;
17574;SDS011;8906;43.590;1.418;2023-08-01T10:26:35;2.08;;;1.85;;
17574;SDS011;8906;43.590;1.418;2023-08-01T10:29:03;1.70;;;1.35;;
17574;SDS011;8906;43.590;1.418;2023-08-01T10:31:29;1.75;;;1.60;;
17574;SDS011;8906;43.590;1.418;2023-08-01T10:34:05;1.55;;;1.45;;
17574;SDS011;8906;43.590;1.418;2023-08-01T10:36:33;2.65;;;2.35;;
17574;SDS011;8906;43.590;1.418;2023-08-01T10:39:00;2.05;;;1.40;;
17574;SDS011;8906;43.590;1.418;2023-08-01T10:41:28;1.83;;;1.70;;
17574;SDS011;8906;43.590;1.418;2023-08-01T10:44:06;4.18;;;2.20;;
17574;SDS011;8906;43.590;1.418;2023-08-01T10:46:44;1.67;;;1.45;;
17574;SDS011;8906;43.590;1.418;2023-08-01T10:49:14;2.20;;;1.80;;
17574;SDS011;8906;43.590;1.418;2023-08-01T10:51:41;5.32;;;1.75;;
17574;SDS011;8906;43.590;1.418;2023-08-01T10:54:17;2.83;;;2.28;;
17574;SDS011;8906;43.590;1.418;2023-08-01T10:56:46;2.30;;;2.10;;
17574;SDS011;8906;43.590;1.418;2023-08-01T10:59:13;2.42;;;1.88;;
17574;SDS011;8906;43.590;1.418;2023-08-01T11:01:43;2.50;;;1.77;;
17574;SDS011;8906;43.590;1.418;2023-08-01T11:04:16;1.38;;;1.25;;
17574;SDS011;8906;43.590;1.418;2023-08-01T11:06:44;1.65;;;1.50;;
17574;SDS011;8906;43.590;1.418;2023-08-01T11:09:15;2.95;;;1.90;;
17574;SDS011;8906;43.590;1.418;2023-08-01T11:11:43;2.47;;;1.70;;
17574;SDS011;8906;43.590;1.418;2023-08-01T11:14:11;2.58;;;1.27;;
17574;SDS011;8906;43.590;1.418;2023-08-01T11:16:39;1.48;;;1.20;;
17574;SDS011;8906;43.590;1.418;2023-08-01T11:19:18;3.25;;;1.27;;
17574;SDS011;8906;43.590;1.418;2023-08-01T11:21:46;4.28;;;1.20;;
17574;SDS011;8906;43.590;1.418;2023-08-01T11:24:13;1.85;;;1.23;;
17574;SDS011;8906;43.590;1.418;2023-08-01T11:26:41;3.92;;;1.50;;
17574;SDS011;8906;43.590;1.418;2023-08-01T11:29:08;1.65;;;1.27;;
17574;SDS011;8906;43.590;1.418;2023-08-01T11:31:36;1.65;;;1.52;;
17574;SDS011;8906;43.590;1.418;2023-08-01T11:34:03;1.60;;;1.45;;
17574;SDS011;8906;43.590;1.418;2023-08-01T11:36:31;3.08;;;1.42;;
17574;SDS011;8906;43.590;1.418;2023-08-01T11:38:58;2.50;;;1.50;;
17574;SDS011;8906;43.590;1.418;2023-08-01T11:41:26;1.80;;;1.42;;
17574;SDS011;8906;43.590;1.418;2023-08-01T11:43:53;2.20;;;1.67;;
17574;SDS011;8906;43.590;1.418;2023-08-01T11:46:21;2.53;;;1.23;;
17574;SDS011;8906;43.590;1.418;2023-08-01T11:48:48;2.33;;;2.00;;
17574;SDS011;8906;43.590;1.418;2023-08-01T11:51:16;3.58;;;1.75;;
17574;SDS011;8906;43.590;1.418;2023-08-01T11:53:44;2.13;;;1.92;;
17574;SDS011;8906;43.590;1.418;2023-08-01T11:56:19;1.77;;;1.67;;
17574;SDS011;8906;43.590;1.418;2023-08-01T11:58:47;5.05;;;2.03;;
17574;SDS011;8906;43.590;1.418;2023-08-01T12:01:14;3.22;;;2.17;;
17574;SDS011;8906;43.590;1.418;2023-08-01T12:03:44;3.22;;;2.08;;
17574;SDS011;8906;43.590;1.418;2023-08-01T12:06:12;2.63;;;2.00;;
17574;SDS011;8906;43.590;1.418;2023-08-01T12:08:41;2.22;;;2.03;;
17574;SDS011;8906;43.590;1.418;2023-08-01T12:11:18;2.30;;;1.90;;
17574;SDS011;8906;43.590;1.418;2023-08-01T12:13:46;2.80;;;2.47;;
17574;SDS011;8906;43.590;1.418;2023-08-01T12:16:13;2.35;;;1.90;;
17574;SDS011;8906;43.590;1.418;2023-08-01T12:18:45;3.92;;;2.33;;
17574;SDS011;8906;43.590;1.418;2023-08-01T12:21:12;2.70;;;1.27;;
17574;SDS011;8906;43.590;1.418;2023-08-01T12:23:40;3.08;;;2.13;;
17574;SDS011;8906;43.590;1.418;2023-08-01T12:26:07;1.88;;;1.42;;
17574;SDS011;8906;43.590;1.418;2023-08-01T12:28:35;2.50;;;1.50;;
17574;SDS011;8906;43.590;1.418;2023-08-01T12:31:03;1.60;;;1.40;;
17574;SDS011;8906;43.590;1.418;2023-08-01T12:33:30;2.30;;;1.75;;
17574;SDS011;8906;43.590;1.418;2023-08-01T12:35:58;1.50;;;1.40;;
17574;SDS011;8906;43.590;1.418;2023-08-01T12:38:25;1.67;;;1.58;;
17574;SDS011;8906;43.590;1.418;2023-08-01T12:40:52;0.93;;;0.88;;
17574;SDS011;8906;43.590;1.418;2023-08-01T12:43:19;1.55;;;1.40;;
17574;SDS011;8906;43.590;1.418;2023-08-01T12:45:47;0.80;;;0.80;;
17574;SDS011;8906;43.590;1.418;2023-08-01T12:48:14;3.25;;;1.52;;
17574;SDS011;8906;43.590;1.418;2023-08-01T12:50:43;1.30;;;1.20;;
17574;SDS011;8906;43.590;1.418;2023-08-01T12:53:10;1.33;;;1.25;;
17574;SDS011;8906;43.590;1.418;2023-08-01T12:55:37;3.50;;;1.08;;
17574;SDS011;8906;43.590;1.418;2023-08-01T12:58:04;1.30;;;1.20;;
17574;SDS011;8906;43.590;1.418;2023-08-01T13:00:31;2.22;;;0.80;;
17574;SDS011;8906;43.590;1.418;2023-08-01T13:02:59;1.00;;;0.70;;
17574;SDS011;8906;43.590;1.418;2023-08-01T13:05:26;0.65;;;0.45;;
17574;SDS011;8906;43.590;1.418;2023-08-01T13:07:53;0.30;;;0.30;;
17574;SDS011;8906;43.590;1.418;2023-08-01T13:10:20;1.52;;;1.48;;
17574;SDS011;8906;43.590;1.418;2023-08-01T13:12:47;1.65;;;0.63;;
17574;SDS011;8906;43.590;1.418;2023-08-01T13:15:14;0.63;;;0.63;;
17574;SDS011;8906;43.590;1.418;2023-08-01T13:17:40;0.60;;;0.55;;
17574;SDS011;8906;43.590;1.418;2023-08-01T13:20:09;2.17;;;0.80;;
17574;SDS011;8906;43.590;1.418;2023-08-01T13:22:36;0.80;;;0.80;;
17574;SDS011;8906;43.590;1.418;2023-08-01T13:25:03;0.60;;;0.60;;
17574;SDS011;8906;43.590;1.418;2023-08-01T13:27:31;2.13;;;1.17;;
17574;SDS011;8906;43.590;1.418;2023-08-01T13:30:00;1.48;;;0.60;;
17574;SDS011;8906;43.590;1.418;2023-08-01T13:32:27;1.40;;;1.13;;
17574;SDS011;8906;43.590;1.418;2023-08-01T13:34:54;0.95;;;0.93;;
17574;SDS011;8906;43.590;1.418;2023-08-01T13:37:22;1.83;;;1.00;;
17574;SDS011;8906;43.590;1.418;2023-08-01T13:39:49;1.85;;;1.05;;
17574;SDS011;8906;43.590;1.418;2023-08-01T13:42:16;2.05;;;1.20;;
17574;SDS011;8906;43.590;1.418;2023-08-01T13:44:42;2.17;;;1.10;;
17574;SDS011;8906;43.590;1.418;2023-08-01T13:47:09;1.05;;;0.98;;
17574;SDS011;8906;43.590;1.418;2023-08-01T13:49:36;1.10;;;1.00;;
17574;SDS011;8906;43.590;1.418;2023-08-01T13:52:04;1.27;;;0.90;;
17574;SDS011;8906;43.590;1.418;2023-08-01T13:54:32;1.02;;;0.88;;
17574;SDS011;8906;43.590;1.418;2023-08-01T13:56:59;0.80;;;0.80;;
17574;SDS011;8906;43.590;1.418;2023-08-01T13:59:26;0.90;;;0.50;;
17574;SDS011;8906;43.590;1.418;2023-08-01T14:01:53;1.75;;;0.90;;
17574;SDS011;8906;43.590;1.418;2023-08-01T14:04:20;1.10;;;1.00;;
17574;SDS011;8906;43.590;1.418;2023-08-01T14:06:47;2.42;;;1.15;;
17574;SDS011;8906;43.590;1.418;2023-08-01T14:09:14;1.67;;;1.00;;
17574;SDS011;8906;43.590;1.418;2023-08-01T14:11:43;1.10;;;1.00;;
17574;SDS011;8906;43.590;1.418;2023-08-01T14:14:09;1.38;;;1.27;;
17574;SDS011;8906;43.590;1.418;2023-08-01T14:16:36;1.52;;;1.42;;
17574;SDS011;8906;43.590;1.418;2023-08-01T14:19:03;1.98;;;1.50;;
17574;SDS011;8906;43.590;1.418;2023-08-01T14:21:31;2.10;;;1.95;;
17574;SDS011;8906;43.590;1.418;2023-08-01T14:23:59;2.78;;;1.75;;
17574;SDS011;8906;43.590;1.418;2023-08-01T14:26:26;1.80;;;1.70;;
17574;SDS011;8906;43.590;1.418;2023-08-01T14:28:54;2.92;;;1.85;;
17574;SDS011;8906;43.590;1.418;2023-08-01T14:31:21;2.15;;;1.77;;
17574;SDS011;8906;43.590;1.418;2023-08-01T14:33:48;2.13;;;1.63;;
17574;SDS011;8906;43.590;1.418;2023-08-01T14:36:15;2.10;;;1.83;;
17574;SDS011;8906;43.590;1.418;2023-08-01T14:38:42;2.80;;;2.15;;
17574;SDS011;8906;43.590;1.418;2023-08-01T14:41:08;3.40;;;1.70;;
17574;SDS011;8906;43.590;1.418;2023-08-01T14:43:35;2.90;;;1.85;;
17574;SDS011;8906;43.590;1.418;2023-08-01T14:46:04;2.08;;;1.88;;
17574;SDS011;8906;43.590;1.418;2023-08-01T14:48:30;3.55;;;2.00;;
17574;SDS011;8906;43.590;1.418;2023-08-01T14:50:57;3.10;;;2.30;;
17574;SDS011;8906;43.590;1.418;2023-08-01T14:53:24;1.90;;;1.70;;
17574;SDS011;8906;43.590;1.418;2023-08-01T14:55:57;2.55;;;2.00;;
17574;SDS011;8906;43.590;1.418;2023-08-01T14:58:25;2.03;;;1.83;;
17574;SDS011;8906;43.590;1.418;2023-08-01T15:00:52;2.10;;;1.90;;
17574;SDS011;8906;43.590;1.418;2023-08-01T15:03:20;3.17;;;1.77;;
17574;SDS011;8906;43.590;1.418;2023-08-01T15:05:47;2.90;;;2.53;;